Time;durP1;ratioP1;P1;durP2;ratioP2;P2;SDS_P1;SDS_P2;PMS_P1;PMS_P2;Temp;Humidity;BMP_temperature;BMP_pressure;BME280_temperature;BME280_humidity;BME280_pressure;Samples;Min_cycle;Max_cycle;Signal;HPM_P1;HPM_P2
2021/03/31 00:00:24;;;;;;;4.97;3.10;;;;;;;22.19;36.28;95913.59;5070985;28;20027;-73
2021/03/31 00:02:55;;;;;;;4.80;2.80;;;;;;;22.38;36.24;95936.56;5071155;28;20021;-73
2021/03/31 00:05:20;;;;;;;4.82;3.03;;;;;;;22.36;36.17;95932.81;5070870;28;20025;-73
2021/03/31 00:07:46;;;;;;;4.43;2.85;;;;;;;22.25;36.40;95914.41;5070818;28;20089;-73
2021/03/31 00:10:17;;;;;;;4.03;2.72;;;;;;;22.34;36.31;95929.84;5069316;28;20024;-73
2021/03/31 00:12:42;;;;;;;5.18;3.00;;;;;;;22.32;36.46;95927.59;5071049;28;20096;-73
2021/03/31 00:15:08;;;;;;;4.65;2.67;;;;;;;22.30;36.44;95924.63;5070536;28;20509;-73
2021/03/31 00:17:34;;;;;;;4.18;3.17;;;;;;;22.25;36.42;95919.84;5070676;28;20090;-73
2021/03/31 00:19:59;;;;;;;4.50;3.08;;;;;;;22.30;36.50;95929.31;5070436;28;20024;-73
2021/03/31 00:22:25;;;;;;;5.10;2.97;;;;;;;22.29;36.52;95927.81;5070945;28;20021;-73
2021/03/31 00:24:50;;;;;;;4.95;3.22;;;;;;;22.27;36.49;95919.38;5070687;28;20020;-73
2021/03/31 00:27:15;;;;;;;6.10;3.17;;;;;;;22.26;36.47;95924.09;5070430;28;20047;-73
2021/03/31 00:29:41;;;;;;;6.18;3.38;;;;;;;22.24;36.63;95920.34;5070442;28;20033;-73
2021/03/31 00:32:07;;;;;;;5.80;3.40;;;;;;;22.24;36.49;95920.34;5070678;28;20097;-73
2021/03/31 00:34:32;;;;;;;5.28;3.25;;;;;;;22.23;36.45;95918.84;5070513;28;20032;-73
2021/03/31 00:36:58;;;;;;;4.65;3.13;;;;;;;22.21;36.57;95916.63;5070038;28;20029;-73
2021/03/31 00:39:23;;;;;;;4.97;2.95;;;;;;;22.21;36.41;95922.06;5070587;28;20025;-73
2021/03/31 00:41:49;;;;;;;5.72;3.30;;;;;;;21.75;36.48;95851.78;5070332;28;20420;-73
2021/03/31 00:44:19;;;;;;;5.35;3.35;;;;;;;22.19;36.48;95913.59;5070154;28;20025;-72
2021/03/31 00:46:44;;;;;;;5.38;3.28;;;;;;;22.18;36.53;95914.06;5070365;28;20017;-73
2021/03/31 00:49:10;;;;;;;5.63;3.63;;;;;;;22.11;36.47;95901.63;5069553;28;20554;-73
2021/03/31 00:51:35;;;;;;;5.03;3.20;;;;;;;22.15;36.49;95913.06;5088136;28;20027;-73
2021/03/31 00:54:01;;;;;;;6.00;3.60;;;;;;;22.15;36.63;95910.34;5072215;28;20028;-73
2021/03/31 00:56:26;;;;;;;5.00;3.40;;;;;;;22.14;36.56;95917.00;5072172;28;20031;-73
2021/03/31 00:58:52;;;;;;;5.00;3.40;;;;;;;22.05;36.61;95903.56;5075517;28;20046;-73
2021/03/31 01:01:17;;;;;;;5.35;3.35;;;;;;;22.13;36.53;95904.63;5068755;28;20303;-73
2021/03/31 01:03:43;;;;;;;5.50;3.75;;;;;;;22.12;36.64;95908.59;5068800;28;20032;-73
2021/03/31 01:06:08;;;;;;;5.65;3.50;;;;;;;22.10;36.72;95911.00;5069946;28;20025;-73
2021/03/31 01:08:33;;;;;;;5.10;3.25;;;;;;;22.10;36.61;95905.56;5070158;28;20094;-73
2021/03/31 01:10:59;;;;;;;6.05;3.83;;;;;;;22.09;36.56;95904.09;5078289;28;20093;-73
2021/03/31 01:13:33;;;;;;;5.88;3.58;;;;;;;22.09;36.60;95903.34;5090132;28;20553;-73
2021/03/31 01:16:24;;;;;;;6.10;3.72;;;;;;;22.09;36.51;95906.06;5083464;28;20048;-74
2021/03/31 01:19:01;;;;;;;5.90;3.47;;;;;;;21.63;36.63;95833.91;5069498;28;20020;-73
2021/03/31 01:21:42;;;;;;;5.32;3.50;;;;;;;22.06;36.71;95896.91;5069039;28;20037;-73
2021/03/31 01:24:41;;;;;;;5.47;3.72;;;;;;;22.05;36.72;95903.56;5069825;28;20123;-73
2021/03/31 01:27:17;;;;;;;6.73;3.70;;;;;;;22.04;36.61;95902.06;5069320;28;20094;-73
2021/03/31 01:29:54;;;;;;;5.55;3.67;;;;;;;21.97;36.74;95893.56;5052696;28;20055;-73
2021/03/31 01:32:19;;;;;;;5.90;3.80;;;;;;;22.03;36.69;95900.56;5069477;28;20035;-73
2021/03/31 01:34:47;;;;;;;6.22;3.90;;;;;;;21.56;36.81;95837.00;5069304;28;20021;-73
2021/03/31 01:37:43;;;;;;;7.18;4.00;;;;;;;22.00;36.69;95901.53;5067800;28;20082;-73
2021/03/31 01:40:10;;;;;;;6.70;3.92;;;;;;;21.99;36.74;95910.16;5067709;28;20029;-73
2021/03/31 01:42:38;;;;;;;5.90;3.78;;;;;;;21.96;36.86;95895.53;5068130;28;20033;-73
2021/03/31 01:45:05;;;;;;;5.30;3.45;;;;;;;21.97;36.67;95905.22;5069369;28;20043;-73
2021/03/31 01:47:33;;;;;;;6.30;3.63;;;;;;;21.91;36.84;95886.56;5068967;28;20055;-73
2021/03/31 01:50:02;;;;;;;6.60;4.05;;;;;;;21.95;36.79;95898.75;5051339;28;20029;-73
2021/03/31 01:52:28;;;;;;;6.50;3.72;;;;;;;21.94;36.83;95908.88;5068069;28;20040;-73
2021/03/31 01:54:53;;;;;;;6.43;4.53;;;;;;;21.84;36.61;95889.69;5051411;28;20036;-73
2021/03/31 01:57:21;;;;;;;6.72;4.30;;;;;;;21.89;36.81;95899.91;5067414;28;20036;-73
2021/03/31 01:59:46;;;;;;;6.75;4.10;;;;;;;21.92;36.73;95911.31;5067501;28;20485;-73
2021/03/31 02:02:12;;;;;;;5.05;3.65;;;;;;;21.91;36.84;95911.06;5067355;28;20020;-74
2021/03/31 02:04:38;;;;;;;7.00;4.03;;;;;;;21.92;36.81;95905.88;5069091;28;20039;-73
2021/03/31 02:07:04;;;;;;;6.65;4.25;;;;;;;21.91;36.64;95908.34;5067781;28;20058;-74
2021/03/31 02:09:32;;;;;;;8.45;4.65;;;;;;;21.89;36.93;95899.91;5067319;28;20792;-73
2021/03/31 02:11:59;;;;;;;7.32;4.32;;;;;;;21.89;36.93;95905.34;5069122;28;20052;-73
2021/03/31 02:14:24;;;;;;;5.97;4.03;;;;;;;21.56;36.86;95853.31;5067597;28;20108;-73
2021/03/31 02:16:50;;;;;;;6.25;4.05;;;;;;;21.88;36.77;95909.28;5047298;28;20037;-73
2021/03/31 02:19:16;;;;;;;7.18;4.05;;;;;;;21.83;36.84;95896.38;5047243;28;20028;-73
2021/03/31 02:21:42;;;;;;;7.03;4.22;;;;;;;21.87;36.92;95899.63;5030984;28;20119;-73
2021/03/31 02:24:07;;;;;;;6.13;4.13;;;;;;;21.84;36.89;95897.84;5049035;28;20470;-73
2021/03/31 02:26:33;;;;;;;8.40;4.57;;;;;;;21.85;36.92;95899.38;5049010;28;20112;-73
2021/03/31 02:28:58;;;;;;;6.60;4.28;;;;;;;21.50;36.78;95860.66;5048649;28;20413;-73
2021/03/31 02:31:24;;;;;;;6.30;4.18;;;;;;;21.79;36.69;95906.72;5048164;28;20489;-73
2021/03/31 02:33:49;;;;;;;7.82;4.55;;;;;;;21.79;36.79;95902.00;5051502;28;20035;-73
2021/03/31 02:36:15;;;;;;;6.82;4.47;;;;;;;21.58;36.91;95865.22;5051477;28;20028;-73
2021/03/31 02:38:42;;;;;;;6.55;4.57;;;;;;;21.79;37.01;95893.13;5035012;28;20028;-73
2021/03/31 02:41:08;;;;;;;6.57;4.43;;;;;;;21.77;37.03;95893.59;5053331;28;20025;-73
2021/03/31 02:43:33;;;;;;;6.85;4.53;;;;;;;21.72;37.09;95890.81;5051435;28;20834;-73
2021/03/31 02:45:58;;;;;;;7.88;4.80;;;;;;;21.75;37.18;95908.88;5051432;28;20033;-73
2021/03/31 02:48:24;;;;;;;7.55;4.28;;;;;;;21.75;36.93;95900.72;5034522;28;20044;-72
2021/03/31 02:50:49;;;;;;;6.93;4.30;;;;;;;21.75;37.01;95895.28;5051450;28;20029;-73
2021/03/31 02:53:15;;;;;;;7.80;5.05;;;;;;;21.42;36.96;95854.13;5051223;28;20021;-73
2021/03/31 02:55:41;;;;;;;6.75;4.53;;;;;;;21.73;36.97;95903.19;5051192;28;20032;-73
2021/03/31 02:58:08;;;;;;;6.55;4.20;;;;;;;21.29;36.96;95837.41;5052407;28;20025;-73
2021/03/31 03:00:34;;;;;;;7.93;4.82;;;;;;;21.72;37.01;95901.69;5051204;28;20429;-73
2021/03/31 03:03:03;;;;;;;6.75;4.38;;;;;;;21.30;37.04;95838.91;5051180;28;20028;-73
2021/03/31 03:05:28;;;;;;;7.32;4.32;;;;;;;21.71;36.97;95897.47;5052710;28;20037;-73
2021/03/31 03:07:54;;;;;;;6.68;4.28;;;;;;;21.32;37.12;95836.44;5034512;28;20417;-73
2021/03/31 03:10:19;;;;;;;7.30;4.70;;;;;;;;;;5034488;28;20032;-73
2021/03/31 03:12:47;;;;;;;6.72;4.30;;;;;;;21.68;37.10;95893.72;5062376;28;20463;-73
2021/03/31 03:15:14;;;;;;;6.63;4.45;;;;;;;21.68;37.02;95884.84;5077237;28;20036;-73
2021/03/31 03:17:40;;;;;;;6.57;4.35;;;;;;;21.67;37.06;95894.22;5090984;28;20444;-73
2021/03/31 03:20:08;;;;;;;6.93;4.50;;;;;;;21.67;36.92;95899.66;5090720;28;20032;-73
2021/03/31 03:22:33;;;;;;;8.55;5.05;;;;;;;21.64;36.90;95893.22;5092291;28;20023;-73
2021/03/31 03:24:59;;;;;;;7.20;4.40;;;;;;;21.62;36.94;95903.78;5089248;28;20025;-73
2021/03/31 03:27:24;;;;;;;6.38;4.70;;;;;;;21.53;37.07;95884.91;5070725;28;20052;-73
2021/03/31 03:29:50;;;;;;;7.88;5.05;;;;;;;21.25;37.19;95836.09;5070673;28;20408;-73
2021/03/31 03:32:16;;;;;;;8.10;5.05;;;;;;;21.64;37.06;95892.44;5070493;28;20024;-73
2021/03/31 03:34:42;;;;;;;6.82;4.72;;;;;;;21.53;37.33;95884.91;5103873;28;20020;-74
2021/03/31 03:37:07;;;;;;;7.90;4.60;;;;;;;21.15;36.99;95832.78;5070398;28;20459;-73
2021/03/31 03:39:33;;;;;;;8.02;4.68;;;;;;;21.61;37.18;95896.88;5071819;28;20055;-73
2021/03/31 03:41:58;;;;;;;7.72;4.75;;;;;;;21.47;37.13;95875.19;5071446;28;20032;-73
2021/03/31 03:44:24;;;;;;;8.68;4.85;;;;;;;21.16;37.15;95822.66;5069531;28;20054;-73
2021/03/31 03:46:49;;;;;;;6.47;4.63;;;;;;;21.61;37.11;95890.69;5053521;28;20082;-73
2021/03/31 03:49:15;;;;;;;8.32;5.10;;;;;;;21.60;37.11;95889.19;5070124;28;20174;-73
2021/03/31 03:51:40;;;;;;;9.52;5.03;;;;;;;21.60;37.14;95894.63;5070123;28;20028;-72
2021/03/31 03:54:09;;;;;;;8.73;4.90;;;;;;;21.58;37.14;95889.69;5049755;28;20503;-73
2021/03/31 03:56:35;;;;;;;8.57;5.05;;;;;;;21.30;36.99;95849.78;5071555;28;20028;-74
2021/03/31 03:59:23;;;;;;;7.05;5.18;;;;;;;21.60;37.14;95889.19;5082422;28;20459;-73
2021/03/31 04:01:49;;;;;;;7.47;4.78;;;;;;;21.64;37.13;95889.72;5091070;28;20103;-76
2021/03/31 04:04:14;;;;;;;8.10;4.93;;;;;;;21.67;37.09;95888.78;5074346;28;20048;-71
2021/03/31 04:06:40;;;;;;;9.35;5.28;;;;;;;21.70;37.24;95899.47;5072076;28;20469;-72
2021/03/31 04:09:05;;;;;;;7.35;4.72;;;;;;;21.74;37.20;95899.25;5073428;28;20031;-71
2021/03/31 04:11:32;;;;;;;7.18;4.32;;;;;;;21.78;36.97;95891.63;5069211;28;20028;-72
2021/03/31 04:14:01;;;;;;;7.07;4.43;;;;;;;21.79;37.10;95896.56;5071065;28;20351;-72
2021/03/31 04:16:29;;;;;;;8.65;4.85;;;;;;;21.85;36.97;95904.81;5069256;28;20075;-72
2021/03/31 04:18:54;;;;;;;6.90;4.38;;;;;;;21.89;36.98;95916.22;5073459;28;20025;-72
2021/03/31 04:21:20;;;;;;;6.72;4.25;;;;;;;21.78;36.83;95894.34;5051927;28;20028;-72
2021/03/31 04:23:45;;;;;;;8.48;4.43;;;;;;;21.93;36.94;95912.81;5071710;28;20097;-71
2021/03/31 04:26:11;;;;;;;6.78;5.03;;;;;;;21.96;36.97;95916.56;5053463;28;20012;-76
2021/03/31 04:28:36;;;;;;;6.30;4.35;;;;;;;21.97;36.91;95913.38;5054654;28;20028;-76
2021/03/31 04:31:02;;;;;;;7.47;4.43;;;;;;;22.00;36.78;95912.41;5071417;28;20016;-72
2021/03/31 04:33:28;;;;;;;7.38;4.38;;;;;;;22.03;36.81;95908.72;5053915;28;20033;-73
2021/03/31 04:35:54;;;;;;;7.15;4.78;;;;;;;22.05;36.78;95916.41;5070476;28;20090;-75
2021/03/31 04:38:19;;;;;;;7.53;4.38;;;;;;;22.06;36.77;95924.09;5103107;27;20028;-75
2021/03/31 04:40:58;;;;;;;6.45;4.13;;;;;;;22.09;36.80;95923.13;5071892;28;20040;-75
2021/03/31 04:43:25;;;;;;;7.10;4.47;;;;;;;22.12;36.73;95919.47;5071672;28;20477;-74
2021/03/31 04:45:54;;;;;;;6.57;4.30;;;;;;;22.12;36.63;95927.63;5069995;28;20553;-74
2021/03/31 04:48:20;;;;;;;6.13;4.43;;;;;;;22.15;36.69;95923.19;5071794;28;20032;-73
2021/03/31 04:50:45;;;;;;;6.72;4.72;;;;;;;22.09;36.72;95909.53;5071399;28;20029;-74
2021/03/31 04:53:11;;;;;;;7.65;5.32;;;;;;;22.19;36.64;95924.47;5071505;28;20417;-75
2021/03/31 04:55:36;;;;;;;8.05;4.60;;;;;;;22.22;36.65;95918.09;5067997;28;20074;-75
2021/03/31 04:58:02;;;;;;;5.60;4.13;;;;;;;21.73;36.46;95844.13;5072045;28;20114;-74
2021/03/31 05:00:27;;;;;;;6.35;4.18;;;;;;;22.27;36.43;95922.09;5068726;28;20032;-74
2021/03/31 05:02:53;;;;;;;6.28;4.13;;;;;;;22.28;36.40;95926.31;5069145;28;20512;-75
2021/03/31 05:05:18;;;;;;;6.47;4.20;;;;;;;22.30;36.49;95919.19;5068027;28;20032;-75
2021/03/31 05:07:44;;;;;;;6.95;4.32;;;;;;;22.31;36.47;95912.50;5070698;28;20039;-73
2021/03/31 05:10:09;;;;;;;7.65;4.95;;;;;;;22.33;36.40;95918.22;5070787;28;20024;-73
2021/03/31 05:12:35;;;;;;;6.47;4.38;;;;;;;22.35;36.57;95920.47;5071519;28;20028;-75
2021/03/31 05:15:00;;;;;;;6.45;5.05;;;;;;;22.36;36.25;95917.25;5068406;28;20048;-72
2021/03/31 05:17:26;;;;;;;6.40;4.28;;;;;;;22.39;36.39;95921.75;5069835;28;20442;-72
2021/03/31 05:19:51;;;;;;;8.18;4.65;;;;;;;22.38;36.33;95919.50;5069511;28;20486;-71
2021/03/31 05:22:17;;;;;;;7.95;4.72;;;;;;;22.41;36.33;95924.72;5069600;28;20028;-72
2021/03/31 05:24:42;;;;;;;6.05;4.60;;;;;;;22.12;36.50;95886.81;5069514;28;20039;-68
2021/03/31 05:27:08;;;;;;;5.43;4.15;;;;;;;22.44;36.56;95923.75;5077743;28;20016;-68
2021/03/31 05:29:33;;;;;;;7.88;4.72;;;;;;;22.45;36.66;95914.34;5078139;28;20496;-68
2021/03/31 05:31:59;;;;;;;7.28;4.80;;;;;;;22.46;36.57;95918.56;5068801;28;20117;-68
2021/03/31 05:34:25;;;;;;;6.18;4.38;;;;;;;22.45;36.74;95914.34;5078898;28;20027;-68
2021/03/31 05:36:50;;;;;;;6.13;4.25;;;;;;;22.51;36.80;95923.31;5069718;28;20108;-71
2021/03/31 05:39:16;;;;;;;7.15;4.32;;;;;;;22.55;36.66;95929.31;5073467;28;20734;-73
2021/03/31 05:41:41;;;;;;;6.85;5.03;;;;;;;22.49;36.38;95910.19;5076774;28;20354;-72
2021/03/31 05:44:08;;;;;;;7.50;5.05;;;;;;;22.64;36.76;95926.41;5074929;28;20531;-73
2021/03/31 05:46:34;;;;;;;7.05;4.63;;;;;;;22.31;36.52;95866.25;5067349;28;20085;-76
2021/03/31 05:48:59;;;;;;;7.00;4.20;;;;;;;22.55;36.53;95893.91;5061194;28;20032;-79
2021/03/31 05:51:25;;;;;;;7.03;4.60;;;;;;;22.86;36.36;95918.44;5052517;28;20016;-75
2021/03/31 05:53:50;;;;;;;6.93;4.47;;;;;;;22.92;36.20;95920.69;5070758;28;20027;-71
2021/03/31 05:56:15;;;;;;;6.05;4.10;;;;;;;22.35;36.06;95828.69;5064264;28;20025;-74
2021/03/31 05:58:41;;;;;;;6.35;4.28;;;;;;;23.10;36.00;95923.09;5067267;28;20085;-73
2021/03/31 06:01:06;;;;;;;7.82;4.78;;;;;;;23.21;35.89;95922.41;5065675;28;20503;-73
2021/03/31 06:03:32;;;;;;;7.05;5.03;;;;;;;23.31;35.66;95929.19;5083181;28;20452;-74
2021/03/31 06:05:59;;;;;;;7.78;4.50;;;;;;;23.37;35.16;95919.78;5069536;28;20251;-74
2021/03/31 06:08:25;;;;;;;5.78;4.22;;;;;;;23.50;35.14;95936.47;5068336;28;20050;-73
2021/03/31 06:10:57;;;;;;;7.20;4.60;;;;;;;23.44;35.28;95905.72;5068213;28;20408;-74
2021/03/31 06:13:23;;;;;;;5.82;3.92;;;;;;;23.65;35.02;95909.81;5071373;28;20028;-73
2021/03/31 06:15:48;;;;;;;7.55;4.82;;;;;;;23.81;35.31;95923.53;5070070;28;20057;-74
2021/03/31 06:18:18;;;;;;;7.10;4.20;;;;;;;23.91;34.90;95911.88;5069270;28;20370;-75
2021/03/31 06:20:55;;;;;;;7.03;5.05;;;;;;;24.01;35.01;95915.88;5077128;28;20058;-73
2021/03/31 06:23:51;;;;;;;6.57;4.45;;;;;;;24.14;34.47;95920.88;4990844;28;20072;-71
2021/03/31 06:26:23;;;;;;;6.82;4.32;;;;;;;24.18;34.61;95908.50;5009710;28;20032;-72
2021/03/31 06:28:53;;;;;;;8.93;4.55;;;;;;;24.05;33.06;95878.22;5030768;28;20041;-74
2021/03/31 06:31:18;;;;;;;7.05;4.70;;;;;;;24.18;34.07;95875.75;5032190;28;20104;-76
2021/03/31 06:33:44;;;;;;;6.20;3.97;;;;;;;24.22;33.61;95868.06;5061431;28;20092;-77
2021/03/31 06:36:11;;;;;;;6.80;4.53;;;;;;;24.27;33.94;95867.31;5009057;28;20109;-79
2021/03/31 06:38:38;;;;;;;6.80;3.97;;;;;;;24.66;33.62;95898.16;5029066;28;20082;-77
2021/03/31 06:41:27;;;;;;;7.40;4.50;;;;;;;24.81;33.48;95920.53;5036227;28;20017;-69
2021/03/31 06:44:36;;;;;;;6.68;4.25;;;;;;;24.83;33.84;95902.41;5028694;28;20037;-70
2021/03/31 06:49:17;;;;;;;8.27;4.57;;;;;;;24.36;33.28;95809.78;5032849;28;20033;-69
2021/03/31 06:51:43;;;;;;;9.57;5.38;;;;;;;25.04;32.95;95900.94;5033989;28;20025;-68
2021/03/31 06:54:21;;;;;;;8.57;4.80;;;;;;;25.17;32.86;95912.06;5031293;28;20033;-68
2021/03/31 06:56:57;;;;;;;7.15;4.38;;;;;;;25.16;33.19;95903.13;5028642;28;20029;-69
2021/03/31 06:59:32;;;;;;;8.75;4.32;;;;;;;25.24;33.08;95909.56;5030038;28;20037;-70
2021/03/31 07:01:58;;;;;;;8.15;4.38;;;;;;;24.96;33.02;95867.84;5032431;28;20203;-69
2021/03/31 07:04:24;;;;;;;7.03;4.25;;;;;;;25.25;32.56;95911.06;5028319;28;20531;-69
2021/03/31 07:07:03;;;;;;;6.13;4.22;;;;;;;25.25;32.62;95911.06;5040096;28;20052;-69
2021/03/31 07:09:29;;;;;;;6.53;4.45;;;;;;;24.84;32.31;95850.00;5030935;28;20414;-69
2021/03/31 07:11:55;;;;;;;8.52;4.40;;;;;;;25.21;32.32;95898.91;5030898;28;20172;-69
2021/03/31 07:14:21;;;;;;;7.45;4.45;;;;;;;25.18;32.36;95911.56;5028059;28;20084;-69
2021/03/31 07:16:47;;;;;;;6.75;4.43;;;;;;;25.08;32.44;95902.16;5023939;28;20120;-69
2021/03/31 07:19:13;;;;;;;6.20;3.95;;;;;;;25.10;32.06;95907.13;5016516;28;20029;-69
2021/03/31 07:21:38;;;;;;;6.63;4.35;;;;;;;25.06;32.37;95910.09;5021117;28;20037;-68
2021/03/31 07:24:04;;;;;;;10.32;5.03;;;;;;;25.00;32.61;95906.63;5035388;28;20041;-69
2021/03/31 07:26:30;;;;;;;7.68;4.63;;;;;;;24.51;32.57;95837.56;5029890;28;20020;-69
2021/03/31 07:28:55;;;;;;;6.10;4.05;;;;;;;24.93;32.54;95909.84;5011969;28;20030;-69
2021/03/31 07:31:27;;;;;;;10.95;5.72;;;;;;;24.89;32.82;95909.34;5031560;28;20033;-69
2021/03/31 07:34:12;;;;;;;7.07;4.50;;;;;;;24.84;32.94;95910.09;5032654;28;20053;-69
2021/03/31 07:36:39;;;;;;;8.13;4.80;;;;;;;24.78;32.55;95899.66;5034245;28;20025;-69
2021/03/31 07:39:04;;;;;;;13.88;4.75;;;;;;;24.75;32.74;95901.38;5033747;28;20025;-69
2021/03/31 07:41:32;;;;;;;6.32;4.30;;;;;;;24.53;32.69;95884.28;5036511;28;20528;-69
2021/03/31 07:43:58;;;;;;;7.03;4.30;;;;;;;24.60;33.13;95900.91;5025901;28;20033;-69
2021/03/31 07:46:29;;;;;;;6.40;4.22;;;;;;;24.63;32.94;95907.34;5035429;28;20387;-69
2021/03/31 07:48:54;;;;;;;6.93;4.30;;;;;;;24.58;32.85;95902.63;5030874;28;20026;-69
2021/03/31 07:51:25;;;;;;;6.57;5.15;;;;;;;24.56;32.88;95899.66;5030605;28;20025;-68
2021/03/31 07:53:51;;;;;;;6.75;4.40;;;;;;;24.38;33.34;95881.03;5031567;28;20027;-69
2021/03/31 07:56:27;;;;;;;8.13;4.75;;;;;;;24.50;32.79;95912.56;5027871;28;20422;-69
2021/03/31 07:59:01;;;;;;;6.85;4.10;;;;;;;24.46;33.04;95906.59;5030361;28;20497;-69
2021/03/31 08:01:51;;;;;;;9.05;4.00;;;;;;;24.42;33.44;95895.16;5044240;28;20029;-68
2021/03/31 08:04:21;;;;;;;8.52;4.68;;;;;;;24.39;33.44;95901.59;5050951;28;20489;-69
2021/03/31 08:06:49;;;;;;;6.90;4.32;;;;;;;24.32;32.88;95902.09;5049307;28;20086;-69
2021/03/31 08:09:17;;;;;;;7.53;4.40;;;;;;;24.33;33.06;95908.31;5049524;28;20425;-69
2021/03/31 08:11:47;;;;;;;10.20;5.22;;;;;;;24.27;33.54;95894.59;5050936;28;20033;-69
2021/03/31 08:14:14;;;;;;;;;;;;;;;24.27;33.43;95905.53;5051494;28;20024;-69
2021/03/31 08:16:41;;;;;;;7.50;4.95;;;;;;;23.89;33.54;95856.34;5050198;28;19920;-69
2021/03/31 08:19:09;;;;;;;7.55;4.90;;;;;;;24.21;33.26;95902.03;5049139;28;20409;-68
2021/03/31 08:21:34;;;;;;;7.40;4.63;;;;;;;24.18;33.63;95903.03;5049690;28;20032;-69
2021/03/31 08:24:02;;;;;;;7.70;4.50;;;;;;;24.05;33.12;95878.22;5038483;28;20014;-69
2021/03/31 08:26:35;;;;;;;6.80;4.38;;;;;;;24.13;33.30;95898.31;5009583;28;20105;-69
2021/03/31 08:29:03;;;;;;;6.88;3.90;;;;;;;24.10;33.52;95902.03;5021202;28;20116;-69
2021/03/31 08:31:29;;;;;;;6.07;4.72;;;;;;;24.04;33.66;95887.63;5030377;28;20030;-68
2021/03/31 08:33:55;;;;;;;7.30;4.57;;;;;;;23.39;33.67;95794.66;5012601;28;20033;-69
2021/03/31 08:36:20;;;;;;;7.50;4.28;;;;;;;23.68;33.36;95832.47;5012693;28;20029;-69
2021/03/31 08:38:52;;;;;;;5.82;3.95;;;;;;;24.04;33.33;95887.63;5029232;28;20034;-69
2021/03/31 08:41:23;;;;;;;8.10;4.50;;;;;;;24.02;33.86;95884.66;5029134;28;20973;-69
2021/03/31 08:43:49;;;;;;;7.32;4.32;;;;;;;24.00;33.97;95892.56;5030465;28;20749;-69
2021/03/31 08:46:31;;;;;;;6.88;4.45;;;;;;;23.93;33.98;95879.41;5030201;28;20033;-69
2021/03/31 08:48:56;;;;;;;7.22;4.90;;;;;;;23.90;33.95;95872.22;5029251;28;20477;-69
2021/03/31 08:51:22;;;;;;;7.82;3.58;;;;;;;23.91;33.82;95870.97;5028762;28;20072;-69
2021/03/31 08:53:48;;;;;;;6.35;4.78;;;;;;;23.81;33.54;95863.50;5010410;28;20025;-69
2021/03/31 08:56:21;;;;;;;6.15;4.43;;;;;;;23.58;33.84;95828.44;5037798;28;20029;-69
2021/03/31 08:58:55;;;;;;;6.00;4.00;;;;;;;23.53;33.65;95823.72;5026891;28;20060;-68
2021/03/31 09:01:31;;;;;;;6.60;4.50;;;;;;;23.87;33.44;95867.00;5028580;28;20034;-69
2021/03/31 09:04:22;;;;;;;7.60;4.35;;;;;;;23.89;33.83;95876.16;5034597;28;20030;-74
2021/03/31 09:06:48;;;;;;;6.50;4.07;;;;;;;23.84;33.74;95869.94;5033461;28;20028;-74
2021/03/31 09:09:13;;;;;;;7.45;4.35;;;;;;;23.55;34.11;95823.97;5033538;28;20036;-73
2021/03/31 09:11:39;;;;;;;5.72;4.03;;;;;;;23.83;34.40;95860.28;5032096;28;20497;-73
2021/03/31 09:14:21;;;;;;;7.35;4.18;;;;;;;23.88;34.38;95866.50;5035195;28;21037;-72
2021/03/31 09:16:57;;;;;;;6.00;4.15;;;;;;;23.88;34.84;95866.50;5042672;28;20076;-73
2021/03/31 09:19:23;;;;;;;6.35;4.32;;;;;;;23.91;34.74;95857.31;5035961;28;20029;-74
2021/03/31 09:21:49;;;;;;;7.35;3.85;;;;;;;23.94;34.94;95861.78;5030713;28;20116;-73
2021/03/31 09:24:17;;;;;;;7.95;3.90;;;;;;;23.97;34.53;95863.53;5029613;28;20033;-73
2021/03/31 09:26:56;;;;;;;7.75;4.95;;;;;;;23.87;33.78;95845.91;5034311;28;20030;-73
2021/03/31 09:29:21;;;;;;;7.15;4.15;;;;;;;23.73;34.47;95796.28;5030896;28;20505;-67
2021/03/31 09:31:47;;;;;;;5.90;3.92;;;;;;;24.13;34.77;95846.47;5032242;28;20040;-69
2021/03/31 09:34:12;;;;;;;6.13;3.80;;;;;;;24.18;34.61;95842.25;5013192;28;20032;-68
2021/03/31 09:36:38;;;;;;;7.13;4.10;;;;;;;24.29;34.84;95843.00;5011122;28;20236;-68
2021/03/31 09:39:08;;;;;;;6.10;3.90;;;;;;;24.37;34.36;95844.78;5045176;28;20037;-68
2021/03/31 09:41:34;;;;;;;;;;;;;;;24.45;34.55;95839.56;5039041;28;20017;-68
2021/03/31 09:43:59;;;;;;;6.43;3.88;;;;;;;24.10;34.14;95781.94;5028542;28;19924;-68
2021/03/31 09:46:29;;;;;;;6.18;3.97;;;;;;;24.62;34.02;95837.56;5035843;28;20049;-67
2021/03/31 09:48:54;;;;;;;8.90;4.15;;;;;;;24.71;34.09;95840.03;5030330;28;20029;-76
2021/03/31 09:51:20;;;;;;;6.68;3.70;;;;;;;24.79;33.87;95836.31;5007461;28;20041;-75
2021/03/31 09:53:45;;;;;;;5.20;3.60;;;;;;;24.64;33.80;95802.31;5042535;28;20033;-73
2021/03/31 09:56:14;;;;;;;7.40;4.15;;;;;;;24.53;33.65;95767.56;5025790;28;20021;-75
2021/03/31 09:58:40;;;;;;;8.27;3.90;;;;;;;24.92;33.52;95812.72;5026636;28;20045;-71
2021/03/31 10:01:12;;;;;;;5.60;3.92;;;;;;;24.88;33.68;95787.63;4997612;28;20013;-74
2021/03/31 10:03:39;;;;;;;5.70;3.72;;;;;;;25.24;33.40;95827.56;5008865;28;20112;-73
2021/03/31 10:06:21;;;;;;;6.13;3.90;;;;;;;25.32;33.49;95817.59;5038849;28;20021;-73
2021/03/31 10:08:47;;;;;;;5.63;3.50;;;;;;;25.40;33.22;95811.09;5034328;28;20095;-74
2021/03/31 10:11:35;;;;;;;5.82;3.67;;;;;;;25.51;32.93;95808.31;5036432;28;20094;-73
2021/03/31 10:14:03;;;;;;;5.43;3.50;;;;;;;25.61;33.04;95811.50;5027585;28;20094;-72
2021/03/31 10:16:32;;;;;;;5.80;3.70;;;;;;;25.40;32.89;95758.41;5027825;28;20119;-73
2021/03/31 10:18:58;;;;;;;4.57;3.42;;;;;;;25.71;32.71;95790.84;5010549;28;20021;-74
2021/03/31 10:21:37;;;;;;;5.75;3.70;;;;;;;25.55;32.60;95747.88;5032592;28;20036;-76
2021/03/31 10:24:06;;;;;;;6.20;3.90;;;;;;;25.80;32.70;95781.09;5031599;28;20395;-76
2021/03/31 10:26:33;;;;;;;5.95;3.65;;;;;;;25.89;32.05;95772.56;5024079;28;20280;-77
2021/03/31 10:29:00;;;;;;;6.90;3.75;;;;;;;26.05;32.18;95788.16;5029402;28;20358;-76
2021/03/31 10:31:39;;;;;;;4.70;3.50;;;;;;;26.10;32.28;95787.34;5011686;28;20124;-76
2021/03/31 10:34:04;;;;;;;6.27;3.33;;;;;;;26.17;32.22;95778.56;5014111;28;20033;-76
2021/03/31 10:51:28;;;;;;;7.43;4.00;;;;;;;26.41;31.55;95756.75;5031938;28;20048;-73
2021/03/31 10:53:57;;;;;;;5.50;3.65;;;;;;;26.44;31.64;95756.50;5021184;28;20021;-72
2021/03/31 10:56:23;;;;;;;5.53;3.53;;;;;;;26.09;31.56;95698.25;5033946;28;20025;-71
2021/03/31 10:58:48;;;;;;;4.43;3.30;;;;;;;26.51;31.44;95744.22;5024266;28;20090;-72
2021/03/31 11:01:14;;;;;;;5.03;3.60;;;;;;;26.54;31.22;95748.69;5036191;28;20060;-68
2021/03/31 11:03:39;;;;;;;5.18;3.30;;;;;;;26.16;31.38;95681.28;5031003;28;20039;-68
2021/03/31 11:06:05;;;;;;;5.55;3.60;;;;;;;26.60;31.22;95725.44;5052952;28;20028;-68
2021/03/31 11:08:31;;;;;;;5.35;3.80;;;;;;;26.64;31.06;95742.34;5027028;28;20527;-68
2021/03/31 11:10:56;;;;;;;5.60;3.85;;;;;;;26.67;31.13;95740.59;5012747;28;20474;-68
2021/03/31 11:13:22;;;;;;;5.38;3.63;;;;;;;26.65;31.16;95726.66;5030518;28;20025;-68
2021/03/31 11:15:48;;;;;;;5.65;3.30;;;;;;;26.64;31.00;95719.69;5034384;28;20438;-68
2021/03/31 11:26:10;;;;;;;5.40;3.33;;;;;;;26.07;31.17;95646.03;5034379;28;20122;-67
2021/03/31 11:28:37;;;;;;;5.60;3.60;;;;;;;26.46;31.37;95701.19;5030912;28;20038;-67
2021/03/31 11:31:03;;;;;;;5.13;3.30;;;;;;;26.41;31.26;95697.25;5035064;28;20032;-68
2021/03/31 11:33:29;;;;;;;4.75;3.10;;;;;;;26.15;31.55;95668.09;5029707;28;20417;-68
2021/03/31 11:35:54;;;;;;;5.35;3.50;;;;;;;25.88;31.67;95634.25;5032324;28;20509;-68
2021/03/31 11:38:20;;;;;;;5.53;3.53;;;;;;;26.25;31.67;95694.66;5031941;28;20088;-68
2021/03/31 11:40:46;;;;;;;5.43;3.35;;;;;;;25.92;31.44;95644.94;5032134;28;20075;-69
2021/03/31 11:43:13;;;;;;;5.82;3.90;;;;;;;25.63;31.55;95606.56;5030777;28;20759;-68
2021/03/31 11:45:38;;;;;;;5.45;3.75;;;;;;;25.75;31.79;95624.41;5018249;28;20075;-68
2021/03/31 11:48:05;;;;;;;4.85;3.30;;;;;;;25.98;31.94;95671.00;5012007;28;20034;-68
2021/03/31 11:50:30;;;;;;;5.25;3.20;;;;;;;25.52;31.89;95612.13;5033189;28;20108;-68
2021/03/31 11:52:56;;;;;;;5.25;3.65;;;;;;;25.91;31.95;95670.81;5015000;28;20022;-68
2021/03/31 11:55:22;;;;;;;5.25;3.30;;;;;;;25.85;31.66;95668.09;5034992;28;20556;-68
2021/03/31 11:57:47;;;;;;;6.20;4.03;;;;;;;25.81;32.12;95659.44;5030434;28;20052;-68
2021/03/31 12:00:14;;;;;;;5.05;3.50;;;;;;;25.71;32.27;95645.81;5034185;28;20029;-68
2021/03/31 12:02:39;;;;;;;6.03;3.83;;;;;;;25.73;32.58;95654.28;5031199;28;20033;-68